Terminal Aerodrome Forecast
Issued by NWS

Home | Current Version | Previous Version | Text Only | Print | Product List | Glossary On
Versions: 1 2 3 4 5 6 7 8 9 10 11 12 13 14 15 16 17 18 19 20 21 22 23 24 25
000
FTUS41 KPHI 220004 AAA
TAFMIV
TAF AMD
KMIV 220004Z 2200/2224 00000KT 1SM BR OVC003
     FM220400 00000KT 1/4SM FG VV002
     FM220800 VRB02KT 1/2SM -RA FG OVC002
     FM221200 05005KT 1SM BR OVC004
     FM221600 05010KT 2SM BR OVC005
     FM222300 05015KT 1SM -RA BR OVC002=

USA.gov is the U.S. government's official web portal to all federal, state and local government web resources and services.